RBG929 FACT-HEGN
Flight info
| Callsign | RBG929 |
|---|---|
| Flight time | N/A |
| Altitude | 35000 |
| Route | CSV DCT UPV UT916 UDLUM/N0461F310 UT916 VLS/N0465F330 UA409 KMI UY198 ETMIX/N0462F350 UY198 KNM UB527 ASEKA/N0462F340 UB527 OVELA/N0460F350 DCT JUB/N0459F340 L554 KUNDI/N0460F360 L554 NUBAR A727 LXR/N0454F370 DCT ORBIB R650 KUSAT KUSAT1A |
| Aircraft | A21N/M-SDE3FGHIRWY/LB1 |
Departure
| Time | N/A |
|---|---|
| Airport | Cape Town International Airport (FACT) |
Arrival
| Time | 2026-05-01 14:13 |
|---|---|
| Airport | Hurghada International Airport (HEGN) |
| Time | Latitude | Longitude | Altitude | Speed | Heading |
|---|---|---|---|---|---|
| 2026-05-01 11:56 | 10.40390 | 31.65205 | 34856 ft | 470 kts | 359° |
| 2026-05-01 11:56 | 10.43767 | 31.65193 | 34858 ft | 470 kts | 359° |
| 2026-05-01 11:56 | 10.50610 | 31.65166 | 34858 ft | 470 kts | 359° |
| 2026-05-01 11:57 | 10.57384 | 31.65148 | 34857 ft | 470 kts | 359° |
| 2026-05-01 11:57 | 10.64121 | 31.65134 | 34861 ft | 470 kts | 359° |
| 2026-05-01 11:58 | 10.70916 | 31.65123 | 34863 ft | 469 kts | 359° |
| 2026-05-01 11:59 | 10.81007 | 31.65109 | 34861 ft | 469 kts | 359° |
| 2026-05-01 11:59 | 10.87739 | 31.65102 | 34862 ft | 468 kts | 359° |
| 2026-05-01 12:00 | 10.97862 | 31.65091 | 34863 ft | 468 kts | 359° |
| 2026-05-01 12:01 | 11.07935 | 31.65078 | 34881 ft | 468 kts | 359° |
| 2026-05-01 12:01 | 11.14661 | 31.65069 | 34887 ft | 468 kts | 359° |
| 2026-05-01 12:02 | 11.21382 | 31.65062 | 34891 ft | 468 kts | 359° |
| 2026-05-01 12:02 | 11.28102 | 31.65055 | 34893 ft | 467 kts | 359° |
| 2026-05-01 12:03 | 11.34807 | 31.65047 | 34899 ft | 466 kts | 359° |
| 2026-05-01 12:03 | 11.41432 | 31.65040 | 34902 ft | 467 kts | 359° |
| 2026-05-01 12:04 | 11.48184 | 31.65032 | 34903 ft | 468 kts | 359° |
| 2026-05-01 12:04 | 11.54899 | 31.65023 | 34912 ft | 468 kts | 359° |
| 2026-05-01 12:05 | 11.61553 | 31.65014 | 34912 ft | 468 kts | 359° |
| 2026-05-01 12:05 | 11.71639 | 31.64999 | 34917 ft | 468 kts | 359° |
| 2026-05-01 12:06 | 11.78331 | 31.64989 | 34925 ft | 467 kts | 359° |
| 2026-05-01 12:06 | 11.85013 | 31.64990 | 34925 ft | 467 kts | 359° |
| 2026-05-01 12:07 | 11.91722 | 31.64990 | 34926 ft | 467 kts | 359° |
| 2026-05-01 12:07 | 11.98393 | 31.64989 | 34931 ft | 467 kts | 359° |
| 2026-05-01 12:08 | 12.05070 | 31.64987 | 34935 ft | 467 kts | 359° |
| 2026-05-01 12:08 | 12.11822 | 31.64984 | 34934 ft | 467 kts | 359° |
| 2026-05-01 12:09 | 12.18445 | 31.64988 | 34927 ft | 466 kts | 359° |
| 2026-05-01 12:09 | 12.25140 | 31.64985 | 34908 ft | 465 kts | 359° |
| 2026-05-01 12:10 | 12.35112 | 31.64984 | 34897 ft | 466 kts | 359° |
| 2026-05-01 12:11 | 12.45137 | 31.64983 | 34895 ft | 467 kts | 359° |
| 2026-05-01 12:11 | 12.51833 | 31.64984 | 34894 ft | 467 kts | 359° |
| 2026-05-01 12:12 | 12.58558 | 31.64981 | 34890 ft | 467 kts | 359° |
| 2026-05-01 12:12 | 12.65262 | 31.64973 | 34890 ft | 466 kts | 359° |
| 2026-05-01 12:13 | 12.71956 | 31.64961 | 34887 ft | 466 kts | 359° |
| 2026-05-01 12:13 | 12.78618 | 31.64945 | 34882 ft | 467 kts | 359° |
| 2026-05-01 12:14 | 12.85308 | 31.64909 | 34884 ft | 468 kts | 359° |
| 2026-05-01 12:14 | 12.92027 | 31.64884 | 34881 ft | 468 kts | 359° |
| 2026-05-01 12:15 | 12.98742 | 31.64867 | 34881 ft | 468 kts | 359° |
| 2026-05-01 12:15 | 13.05530 | 31.64856 | 34883 ft | 468 kts | 359° |
| 2026-05-01 12:16 | 13.12293 | 31.64847 | 34888 ft | 468 kts | 359° |
| 2026-05-01 12:16 | 13.19027 | 31.64838 | 34888 ft | 468 kts | 359° |
| 2026-05-01 12:17 | 13.25780 | 31.64831 | 34888 ft | 468 kts | 359° |
| 2026-05-01 12:17 | 13.32546 | 31.64824 | 34886 ft | 468 kts | 359° |
| 2026-05-01 12:18 | 13.39257 | 31.64819 | 34878 ft | 468 kts | 359° |
| 2026-05-01 12:18 | 13.45997 | 31.64812 | 34872 ft | 468 kts | 359° |
| 2026-05-01 12:19 | 13.52739 | 31.64805 | 34877 ft | 468 kts | 359° |
| 2026-05-01 12:19 | 13.59458 | 31.64798 | 34879 ft | 468 kts | 359° |
| 2026-05-01 12:20 | 13.66142 | 31.64790 | 34877 ft | 468 kts | 359° |
| 2026-05-01 12:20 | 13.72884 | 31.64784 | 34878 ft | 468 kts | 359° |
| 2026-05-01 12:21 | 13.79664 | 31.64778 | 34879 ft | 468 kts | 359° |
| 2026-05-01 12:21 | 13.86399 | 31.64771 | 34879 ft | 468 kts | 359° |
| 2026-05-01 12:22 | 13.93169 | 31.64764 | 34882 ft | 468 kts | 358° |
| 2026-05-01 12:22 | 13.99823 | 31.64757 | 34882 ft | 468 kts | 358° |
| 2026-05-01 12:23 | 14.06652 | 31.64749 | 34880 ft | 469 kts | 358° |
| 2026-05-01 12:23 | 14.13334 | 31.64743 | 34886 ft | 468 kts | 359° |
| 2026-05-01 12:24 | 14.19984 | 31.64736 | 34892 ft | 468 kts | 358° |
| 2026-05-01 12:24 | 14.26725 | 31.64729 | 34893 ft | 468 kts | 358° |
| 2026-05-01 12:25 | 14.36812 | 31.64720 | 34895 ft | 468 kts | 358° |
| 2026-05-01 12:26 | 14.43505 | 31.64713 | 34894 ft | 468 kts | 358° |
| 2026-05-01 12:26 | 14.53602 | 31.64702 | 34892 ft | 468 kts | 358° |
| 2026-05-01 12:27 | 14.63609 | 31.64693 | 34895 ft | 468 kts | 358° |
| 2026-05-01 12:28 | 14.73738 | 31.64682 | 34891 ft | 467 kts | 358° |
| 2026-05-01 12:29 | 14.83807 | 31.64671 | 34890 ft | 467 kts | 358° |
| 2026-05-01 12:29 | 14.93907 | 31.64660 | 34898 ft | 467 kts | 358° |
| 2026-05-01 12:30 | 15.03944 | 31.64652 | 34903 ft | 467 kts | 358° |
| 2026-05-01 12:31 | 15.10645 | 31.64644 | 34903 ft | 467 kts | 358° |
| 2026-05-01 12:31 | 15.17341 | 31.64637 | 34901 ft | 467 kts | 358° |
| 2026-05-01 12:32 | 15.24088 | 31.64630 | 34902 ft | 468 kts | 358° |
| 2026-05-01 12:32 | 15.34195 | 31.64620 | 34901 ft | 467 kts | 358° |
| 2026-05-01 12:33 | 15.40930 | 31.64613 | 34897 ft | 467 kts | 358° |
| 2026-05-01 12:33 | 15.47679 | 31.64606 | 34899 ft | 467 kts | 358° |
| 2026-05-01 12:34 | 15.54384 | 31.64598 | 34901 ft | 467 kts | 358° |
| 2026-05-01 12:34 | 15.61073 | 31.64591 | 34897 ft | 467 kts | 358° |
| 2026-05-01 12:35 | 15.67797 | 31.64584 | 34898 ft | 468 kts | 358° |
| 2026-05-01 12:35 | 15.74576 | 31.64578 | 34896 ft | 468 kts | 358° |
| 2026-05-01 12:36 | 15.81275 | 31.64570 | 34898 ft | 468 kts | 357° |
| 2026-05-01 12:36 | 15.88017 | 31.64564 | 34891 ft | 467 kts | 357° |
| 2026-05-01 12:37 | 15.94749 | 31.64557 | 34889 ft | 467 kts | 357° |
| 2026-05-01 12:37 | 16.01393 | 31.64549 | 34893 ft | 468 kts | 357° |
| 2026-05-01 12:38 | 16.08102 | 31.64541 | 34895 ft | 469 kts | 357° |
| 2026-05-01 12:38 | 16.14806 | 31.64535 | 34895 ft | 468 kts | 357° |
| 2026-05-01 12:39 | 16.21578 | 31.64528 | 34903 ft | 468 kts | 357° |
| 2026-05-01 12:39 | 16.28323 | 31.64520 | 34904 ft | 468 kts | 357° |
| 2026-05-01 12:40 | 16.35122 | 31.64513 | 34901 ft | 468 kts | 357° |
| 2026-05-01 12:40 | 16.41815 | 31.64506 | 34895 ft | 468 kts | 357° |
| 2026-05-01 12:41 | 16.48603 | 31.64499 | 34897 ft | 468 kts | 357° |
| 2026-05-01 12:41 | 16.55351 | 31.64490 | 34894 ft | 468 kts | 357° |
| 2026-05-01 12:42 | 16.62099 | 31.64484 | 34893 ft | 468 kts | 357° |
| 2026-05-01 12:42 | 16.68856 | 31.64477 | 34893 ft | 468 kts | 357° |
| 2026-05-01 12:43 | 16.75686 | 31.64470 | 34892 ft | 468 kts | 357° |
| 2026-05-01 12:43 | 16.82468 | 31.64461 | 34897 ft | 468 kts | 357° |
| 2026-05-01 12:44 | 16.89204 | 31.64455 | 34902 ft | 468 kts | 357° |
| 2026-05-01 12:45 | 17.02635 | 31.64440 | 34896 ft | 468 kts | 357° |
| 2026-05-01 12:45 | 17.09438 | 31.64432 | 34892 ft | 468 kts | 357° |
| 2026-05-01 12:46 | 17.16176 | 31.64424 | 34895 ft | 468 kts | 357° |
| 2026-05-01 12:46 | 17.22856 | 31.64418 | 34892 ft | 467 kts | 356° |
| 2026-05-01 12:47 | 17.29556 | 31.64408 | 34888 ft | 467 kts | 357° |
| 2026-05-01 12:47 | 17.36299 | 31.64399 | 34885 ft | 467 kts | 356° |
| 2026-05-01 12:48 | 17.42988 | 31.64392 | 34885 ft | 467 kts | 356° |
| 2026-05-01 12:48 | 17.49730 | 31.64384 | 34884 ft | 466 kts | 356° |
| 2026-05-01 12:49 | 17.56436 | 31.64374 | 34881 ft | 466 kts | 356° |
| 2026-05-01 12:49 | 17.63108 | 31.64365 | 34882 ft | 465 kts | 356° |
| 2026-05-01 12:50 | 17.69861 | 31.64353 | 34883 ft | 465 kts | 356° |
| 2026-05-01 12:50 | 17.76488 | 31.64354 | 34885 ft | 465 kts | 356° |
| 2026-05-01 12:51 | 17.83176 | 31.64353 | 34885 ft | 465 kts | 356° |
| 2026-05-01 12:52 | 17.93150 | 31.64350 | 34884 ft | 464 kts | 356° |
| 2026-05-01 12:52 | 18.03150 | 31.64351 | 34885 ft | 463 kts | 356° |
| 2026-05-01 12:53 | 18.13141 | 31.64350 | 34885 ft | 463 kts | 356° |
| 2026-05-01 12:54 | 18.19756 | 31.64349 | 34882 ft | 463 kts | 356° |
| 2026-05-01 12:54 | 18.29676 | 31.64346 | 34880 ft | 463 kts | 356° |
| 2026-05-01 12:55 | 18.39572 | 31.64346 | 34878 ft | 462 kts | 356° |
| 2026-05-01 12:56 | 18.46170 | 31.64347 | 34878 ft | 462 kts | 356° |
| 2026-05-01 12:56 | 18.52792 | 31.64346 | 34878 ft | 462 kts | 356° |
| 2026-05-01 12:57 | 18.59448 | 31.64343 | 34876 ft | 461 kts | 356° |
| 2026-05-01 12:57 | 18.69401 | 31.64327 | 34882 ft | 460 kts | 356° |
| 2026-05-01 12:58 | 18.75983 | 31.64316 | 34887 ft | 460 kts | 355° |
| 2026-05-01 12:59 | 18.85856 | 31.64272 | 34888 ft | 460 kts | 355° |
| 2026-05-01 12:59 | 18.95818 | 31.64237 | 34890 ft | 460 kts | 355° |
| 2026-05-01 13:00 | 19.05637 | 31.64208 | 34890 ft | 460 kts | 355° |
| 2026-05-01 13:01 | 19.15572 | 31.64183 | 34894 ft | 458 kts | 355° |
| 2026-05-01 13:02 | 19.25544 | 31.64158 | 34898 ft | 458 kts | 355° |
| 2026-05-01 13:07 | 19.97943 | 31.63974 | 34896 ft | 456 kts | 355° |
| 2026-05-01 13:08 | 20.04509 | 31.63957 | 34893 ft | 456 kts | 355° |
| 2026-05-01 13:08 | 20.11078 | 31.63940 | 34894 ft | 455 kts | 354° |
| 2026-05-01 13:09 | 20.17579 | 31.63923 | 34898 ft | 455 kts | 354° |
| 2026-05-01 13:09 | 20.24119 | 31.63907 | 34903 ft | 455 kts | 354° |
| 2026-05-01 13:10 | 20.30632 | 31.63891 | 34909 ft | 455 kts | 354° |
| 2026-05-01 13:10 | 20.37111 | 31.63874 | 34914 ft | 454 kts | 354° |
| 2026-05-01 13:11 | 20.43622 | 31.63858 | 34920 ft | 453 kts | 354° |
| 2026-05-01 13:11 | 20.50131 | 31.63840 | 34923 ft | 454 kts | 354° |
| 2026-05-01 13:12 | 20.56626 | 31.63823 | 34925 ft | 454 kts | 354° |
| 2026-05-01 13:12 | 20.63189 | 31.63808 | 34930 ft | 454 kts | 354° |
| 2026-05-01 13:13 | 20.69717 | 31.63790 | 34932 ft | 453 kts | 354° |
| 2026-05-01 13:13 | 20.76181 | 31.63773 | 34938 ft | 453 kts | 354° |
| 2026-05-01 13:14 | 20.82718 | 31.63757 | 34939 ft | 453 kts | 354° |
| 2026-05-01 13:14 | 20.89210 | 31.63740 | 34943 ft | 453 kts | 354° |
| 2026-05-01 13:15 | 20.95734 | 31.63723 | 34948 ft | 452 kts | 353° |
| 2026-05-01 13:15 | 21.02228 | 31.63706 | 34952 ft | 452 kts | 353° |
| 2026-05-01 13:16 | 21.08741 | 31.63690 | 34948 ft | 452 kts | 353° |
| 2026-05-01 13:16 | 21.15232 | 31.63673 | 34944 ft | 452 kts | 353° |
| 2026-05-01 13:17 | 21.28187 | 31.63641 | 34931 ft | 452 kts | 353° |
| 2026-05-01 13:18 | 21.37821 | 31.63615 | 34924 ft | 452 kts | 353° |
| 2026-05-01 13:18 | 21.44303 | 31.63599 | 34928 ft | 451 kts | 353° |
| 2026-05-01 13:19 | 21.50809 | 31.63582 | 34924 ft | 451 kts | 353° |
| 2026-05-01 13:20 | 21.60502 | 31.63557 | 34925 ft | 451 kts | 353° |
| 2026-05-01 13:20 | 21.67003 | 31.63541 | 34933 ft | 451 kts | 353° |
| 2026-05-01 13:21 | 21.76708 | 31.63515 | 34931 ft | 450 kts | 353° |
| 2026-05-01 13:21 | 21.83184 | 31.63514 | 34930 ft | 450 kts | 353° |
| 2026-05-01 13:22 | 21.89682 | 31.63510 | 34930 ft | 451 kts | 353° |
| 2026-05-01 13:22 | 21.96159 | 31.63495 | 34927 ft | 451 kts | 353° |
| 2026-05-01 13:23 | 22.02667 | 31.63427 | 34919 ft | 449 kts | 351° |
| 2026-05-01 13:23 | 22.09174 | 31.63162 | 34905 ft | 448 kts | 351° |
| 2026-05-01 13:24 | 22.15602 | 31.62908 | 34897 ft | 449 kts | 351° |
| 2026-05-01 13:25 | 22.25318 | 31.62552 | 34891 ft | 448 kts | 351° |
| 2026-05-01 13:25 | 22.31746 | 31.62632 | 34890 ft | 454 kts | 356° |
| 2026-05-01 13:26 | 22.38280 | 31.63443 | 34890 ft | 460 kts | 2° |
| 2026-05-01 13:26 | 22.44804 | 31.65025 | 34889 ft | 467 kts | 7° |
| 2026-05-01 13:27 | 22.51230 | 31.67028 | 34890 ft | 467 kts | 8° |
| 2026-05-01 13:27 | 22.60950 | 31.70098 | 34894 ft | 468 kts | 8° |
| 2026-05-01 13:28 | 22.70605 | 31.73140 | 34895 ft | 467 kts | 8° |
| 2026-05-01 13:29 | 22.83488 | 31.77198 | 34903 ft | 467 kts | 8° |
| 2026-05-01 13:31 | 23.02912 | 31.83332 | 34915 ft | 468 kts | 8° |
| 2026-05-01 13:32 | 23.18997 | 31.88434 | 34899 ft | 467 kts | 7° |
| 2026-05-01 13:33 | 23.35122 | 31.93611 | 34912 ft | 469 kts | 8° |
| 2026-05-01 13:34 | 23.47917 | 31.98032 | 34937 ft | 469 kts | 8° |
| 2026-05-01 13:35 | 23.57554 | 32.01368 | 34952 ft | 469 kts | 8° |
| 2026-05-01 13:36 | 23.67130 | 32.04688 | 34956 ft | 469 kts | 8° |
| 2026-05-01 13:36 | 23.76748 | 32.08025 | 34958 ft | 469 kts | 8° |
| 2026-05-01 13:37 | 23.83155 | 32.10250 | 34957 ft | 469 kts | 8° |
| 2026-05-01 13:37 | 23.89633 | 32.12503 | 34950 ft | 471 kts | 8° |
| 2026-05-01 13:38 | 23.99223 | 32.15844 | 34943 ft | 469 kts | 8° |
| 2026-05-01 13:39 | 24.05617 | 32.18075 | 34948 ft | 469 kts | 8° |
| 2026-05-01 13:39 | 24.12067 | 32.20325 | 34952 ft | 470 kts | 8° |
| 2026-05-01 13:40 | 24.18494 | 32.22574 | 34961 ft | 468 kts | 8° |
| 2026-05-01 13:40 | 24.24855 | 32.24800 | 34959 ft | 468 kts | 8° |
| 2026-05-01 13:41 | 24.31273 | 32.27048 | 34968 ft | 468 kts | 8° |
| 2026-05-01 13:41 | 24.37628 | 32.29276 | 34968 ft | 468 kts | 8° |
| 2026-05-01 13:42 | 24.44048 | 32.31533 | 34956 ft | 466 kts | 8° |
| 2026-05-01 13:42 | 24.50412 | 32.33771 | 34951 ft | 467 kts | 8° |
| 2026-05-01 13:43 | 24.56787 | 32.36019 | 34944 ft | 467 kts | 8° |
| 2026-05-01 13:43 | 24.63157 | 32.38271 | 34939 ft | 465 kts | 8° |
| 2026-05-01 13:44 | 24.69460 | 32.40496 | 34928 ft | 465 kts | 8° |
| 2026-05-01 13:44 | 24.75837 | 32.42671 | 34923 ft | 464 kts | 7° |
| 2026-05-01 13:45 | 24.82169 | 32.44816 | 34912 ft | 462 kts | 7° |
| 2026-05-01 13:45 | 24.88519 | 32.46979 | 34915 ft | 464 kts | 7° |
| 2026-05-01 13:46 | 24.94904 | 32.49164 | 34897 ft | 464 kts | 7° |
| 2026-05-01 13:46 | 25.01236 | 32.51339 | 34895 ft | 462 kts | 7° |
| 2026-05-01 13:47 | 25.07548 | 32.53505 | 34885 ft | 463 kts | 7° |
| 2026-05-01 13:47 | 25.13928 | 32.55697 | 34881 ft | 463 kts | 7° |
| 2026-05-01 13:48 | 25.20285 | 32.57887 | 34874 ft | 464 kts | 7° |
| 2026-05-01 13:48 | 25.26673 | 32.60090 | 34874 ft | 464 kts | 7° |
| 2026-05-01 13:49 | 25.32999 | 32.62272 | 34881 ft | 462 kts | 8° |
| 2026-05-01 13:49 | 25.39010 | 32.64349 | 34885 ft | 463 kts | 8° |
| 2026-05-01 13:50 | 25.45403 | 32.66563 | 34892 ft | 462 kts | 8° |
| 2026-05-01 13:50 | 25.51757 | 32.68767 | 34899 ft | 463 kts | 8° |
| 2026-05-01 13:51 | 25.58064 | 32.70959 | 34896 ft | 464 kts | 8° |
| 2026-05-01 13:51 | 25.64393 | 32.73161 | 34883 ft | 464 kts | 8° |
| 2026-05-01 13:52 | 25.70659 | 32.75710 | 34705 ft | 465 kts | 15° |
| 2026-05-01 13:52 | 25.73612 | 32.77284 | 34444 ft | 458 kts | 19° |
| 2026-05-01 13:52 | 25.76466 | 32.79065 | 34173 ft | 458 kts | 22° |
| 2026-05-01 13:52 | 25.79206 | 32.81038 | 33894 ft | 459 kts | 26° |
| 2026-05-01 13:53 | 25.81869 | 32.83241 | 33617 ft | 462 kts | 30° |
| 2026-05-01 13:53 | 25.86967 | 32.87993 | 32694 ft | 464 kts | 33° |
| 2026-05-01 13:53 | 25.89490 | 32.90390 | 32079 ft | 465 kts | 33° |
| 2026-05-01 13:54 | 25.92001 | 32.92775 | 31418 ft | 465 kts | 33° |
| 2026-05-01 13:54 | 25.94529 | 32.95169 | 30682 ft | 467 kts | 33° |
| 2026-05-01 13:54 | 25.97067 | 32.97572 | 29967 ft | 467 kts | 33° |
| 2026-05-01 13:54 | 25.99571 | 32.99940 | 29305 ft | 466 kts | 33° |
| 2026-05-01 13:55 | 26.02105 | 33.02335 | 28589 ft | 467 kts | 34° |
| 2026-05-01 13:55 | 26.04628 | 33.04718 | 27809 ft | 468 kts | 34° |
| 2026-05-01 13:55 | 26.07203 | 33.07152 | 26898 ft | 473 kts | 34° |
| 2026-05-01 13:55 | 26.09785 | 33.09593 | 26027 ft | 475 kts | 34° |
| 2026-05-01 13:56 | 26.12386 | 33.12058 | 25403 ft | 472 kts | 35° |
| 2026-05-01 13:56 | 26.14943 | 33.14486 | 24780 ft | 469 kts | 35° |
| 2026-05-01 13:56 | 26.17508 | 33.16924 | 24186 ft | 466 kts | 35° |
| 2026-05-01 13:56 | 26.20026 | 33.19317 | 23606 ft | 462 kts | 35° |
| 2026-05-01 13:57 | 26.22549 | 33.21717 | 23028 ft | 458 kts | 36° |
| 2026-05-01 13:57 | 26.24173 | 33.23260 | 22660 ft | 455 kts | 36° |
| 2026-05-01 13:57 | 26.27470 | 33.26398 | 21931 ft | 450 kts | 36° |
| 2026-05-01 13:57 | 26.29924 | 33.28737 | 21388 ft | 447 kts | 36° |
| 2026-05-01 13:58 | 26.32354 | 33.31053 | 20848 ft | 443 kts | 36° |
| 2026-05-01 13:58 | 26.34732 | 33.33323 | 20311 ft | 439 kts | 36° |
| 2026-05-01 13:58 | 26.37092 | 33.35579 | 19779 ft | 436 kts | 36° |
| 2026-05-01 13:58 | 26.39453 | 33.37832 | 19248 ft | 432 kts | 36° |
| 2026-05-01 13:59 | 26.41789 | 33.40060 | 18714 ft | 429 kts | 37° |
| 2026-05-01 13:59 | 26.44222 | 33.42173 | 18160 ft | 423 kts | 31° |
| 2026-05-01 13:59 | 26.46767 | 33.43916 | 17617 ft | 417 kts | 24° |
| 2026-05-01 13:59 | 26.49445 | 33.45363 | 17087 ft | 411 kts | 20° |
| 2026-05-01 14:00 | 26.52159 | 33.46709 | 16566 ft | 407 kts | 19° |
| 2026-05-01 14:00 | 26.54836 | 33.48023 | 16043 ft | 404 kts | 19° |
| 2026-05-01 14:00 | 26.57527 | 33.49350 | 15516 ft | 400 kts | 19° |
| 2026-05-01 14:00 | 26.60139 | 33.50646 | 15002 ft | 396 kts | 19° |
| 2026-05-01 14:01 | 26.62757 | 33.51952 | 14476 ft | 392 kts | 19° |
| 2026-05-01 14:01 | 26.65295 | 33.53220 | 13968 ft | 388 kts | 20° |
| 2026-05-01 14:01 | 26.67806 | 33.54481 | 13456 ft | 375 kts | 19° |
| 2026-05-01 14:01 | 26.70208 | 33.55691 | 12855 ft | 358 kts | 19° |
| 2026-05-01 14:02 | 26.72504 | 33.56847 | 12279 ft | 342 kts | 19° |
| 2026-05-01 14:02 | 26.74695 | 33.57946 | 11737 ft | 327 kts | 19° |
| 2026-05-01 14:02 | 26.76768 | 33.58986 | 11236 ft | 312 kts | 19° |
| 2026-05-01 14:02 | 26.78686 | 33.60181 | 10952 ft | 300 kts | 37° |
| 2026-05-01 14:03 | 26.79803 | 33.62147 | 10884 ft | 301 kts | 68° |
| 2026-05-01 14:03 | 26.79998 | 33.64594 | 10433 ft | 308 kts | 89° |
| 2026-05-01 14:03 | 26.79790 | 33.67045 | 10013 ft | 309 kts | 93° |
| 2026-05-01 14:03 | 26.79556 | 33.69481 | 9664 ft | 305 kts | 92° |
| 2026-05-01 14:04 | 26.79373 | 33.71923 | 9366 ft | 298 kts | 90° |
| 2026-05-01 14:04 | 26.79242 | 33.74274 | 9045 ft | 291 kts | 89° |
| 2026-05-01 14:04 | 26.79174 | 33.76556 | 8716 ft | 282 kts | 81° |
| 2026-05-01 14:04 | 26.79473 | 33.78004 | 8403 ft | 270 kts | 57° |
| 2026-05-01 14:05 | 26.81229 | 33.79758 | 7860 ft | 242 kts | 12° |
| 2026-05-01 14:05 | 26.82894 | 33.80112 | 7492 ft | 232 kts | 3° |
| 2026-05-01 14:05 | 26.84562 | 33.80387 | 7137 ft | 228 kts | 4° |
| 2026-05-01 14:05 | 26.86152 | 33.80700 | 6839 ft | 222 kts | 6° |
| 2026-05-01 14:06 | 26.87691 | 33.81043 | 6527 ft | 214 kts | 7° |
| 2026-05-01 14:06 | 26.89206 | 33.81401 | 6131 ft | 210 kts | 7° |
| 2026-05-01 14:06 | 26.90661 | 33.81759 | 5732 ft | 206 kts | 7° |
| 2026-05-01 14:06 | 26.92102 | 33.82120 | 5365 ft | 202 kts | 8° |
| 2026-05-01 14:07 | 26.93522 | 33.82481 | 4991 ft | 197 kts | 8° |
| 2026-05-01 14:07 | 26.94891 | 33.82829 | 4633 ft | 193 kts | 8° |
| 2026-05-01 14:07 | 26.96240 | 33.83176 | 4272 ft | 189 kts | 8° |
| 2026-05-01 14:08 | 26.98818 | 33.83841 | 3643 ft | 176 kts | 8° |
| 2026-05-01 14:08 | 27.00035 | 33.84154 | 3356 ft | 170 kts | 8° |
| 2026-05-01 14:08 | 27.01178 | 33.84446 | 3104 ft | 165 kts | 8° |
| 2026-05-01 14:08 | 27.02264 | 33.84572 | 2935 ft | 151 kts | 354° |
| 2026-05-01 14:09 | 27.03286 | 33.84398 | 2719 ft | 142 kts | 344° |
| 2026-05-01 14:09 | 27.04388 | 33.84082 | 2503 ft | 142 kts | 343° |
| 2026-05-01 14:09 | 27.05382 | 33.83787 | 2311 ft | 141 kts | 343° |
| 2026-05-01 14:09 | 27.06347 | 33.83501 | 2124 ft | 141 kts | 343° |
| 2026-05-01 14:10 | 27.07284 | 33.83209 | 1935 ft | 141 kts | 339° |
| 2026-05-01 14:10 | 27.08191 | 33.82769 | 1722 ft | 140 kts | 336° |
| 2026-05-01 14:10 | 27.09078 | 33.82296 | 1491 ft | 139 kts | 335° |
| 2026-05-01 14:10 | 27.09937 | 33.81812 | 1324 ft | 139 kts | 333° |
| 2026-05-01 14:11 | 27.10791 | 33.81285 | 1143 ft | 136 kts | 334° |
| 2026-05-01 14:11 | 27.12582 | 33.80607 | 776 ft | 127 kts | 347° |
| 2026-05-01 14:11 | 27.13474 | 33.80375 | 570 ft | 131 kts | 349° |
| 2026-05-01 14:12 | 27.14398 | 33.80117 | 428 ft | 135 kts | 347° |
| 2026-05-01 14:12 | 27.15338 | 33.79837 | 251 ft | 135 kts | 348° |
| 2026-05-01 14:12 | 27.16246 | 33.79582 | 66 ft | 128 kts | 347° |
| 2026-05-01 14:12 | 27.16964 | 33.79373 | 62 ft | 78 kts | 346° |
| 2026-05-01 14:13 | 27.17343 | 33.79258 | 62 ft | 39 kts | 348° |
| 2026-05-01 14:13 | 27.17519 | 33.79210 | 62 ft | 36 kts | 346° |
| 2026-05-01 14:13 | 27.17824 | 33.79160 | 62 ft | 27 kts | 10° |
| 2026-05-01 14:13 | 27.17991 | 33.79198 | 62 ft | 22 kts | 18° |
| 2026-05-01 14:14 | 27.18142 | 33.79218 | 61 ft | 20 kts | 353° |
| 2026-05-01 14:14 | 27.18282 | 33.79182 | 61 ft | 19 kts | 346° |
| 2026-05-01 14:14 | 27.18405 | 33.79145 | 61 ft | 18 kts | 345° |
| 2026-05-01 14:14 | 27.18535 | 33.79107 | 61 ft | 18 kts | 346° |
| 2026-05-01 14:15 | 27.18661 | 33.79071 | 61 ft | 18 kts | 344° |
| 2026-05-01 14:15 | 27.18786 | 33.79032 | 61 ft | 17 kts | 345° |
| 2026-05-01 14:15 | 27.18897 | 33.79004 | 61 ft | 13 kts | 5° |
| 2026-05-01 14:15 | 27.18953 | 33.79084 | 61 ft | 13 kts | 75° |
| 2026-05-01 14:16 | 27.18982 | 33.79199 | 61 ft | 15 kts | 75° |
| 2026-05-01 14:16 | 27.19011 | 33.79320 | 61 ft | 16 kts | 75° |
| 2026-05-01 14:16 | 27.19041 | 33.79446 | 61 ft | 16 kts | 75° |
| 2026-05-01 14:16 | 27.19073 | 33.79579 | 61 ft | 17 kts | 75° |
| 2026-05-01 14:17 | 27.19105 | 33.79712 | 61 ft | 17 kts | 75° |
| 2026-05-01 14:17 | 27.19133 | 33.79836 | 61 ft | 13 kts | 79° |
| 2026-05-01 14:17 | 27.19091 | 33.79903 | 61 ft | 12 kts | 161° |
| 2026-05-01 14:17 | 27.19007 | 33.79931 | 61 ft | 12 kts | 165° |
| 2026-05-01 14:18 | 27.18914 | 33.79959 | 61 ft | 14 kts | 164° |
| 2026-05-01 14:18 | 27.18810 | 33.79990 | 61 ft | 16 kts | 166° |
| 2026-05-01 14:18 | 27.18693 | 33.80021 | 61 ft | 17 kts | 164° |
| 2026-05-01 14:18 | 27.18613 | 33.80050 | 61 ft | 18 kts | 164° |
| 2026-05-01 14:19 | 27.18578 | 33.80170 | 61 ft | 14 kts | 77° |
| 2026-05-01 14:19 | 27.18533 | 33.80238 | 61 ft | 13 kts | 165° |
| 2026-05-01 14:19 | 27.18436 | 33.80265 | 61 ft | 15 kts | 167° |
| 2026-05-01 14:19 | 27.18326 | 33.80298 | 61 ft | 16 kts | 164° |
| 2026-05-01 14:20 | 27.18217 | 33.80345 | 61 ft | 16 kts | 128° |
| 2026-05-01 14:20 | 27.18030 | 33.80469 | 61 ft | 10 kts | 166° |
| 2026-05-01 14:20 | 27.17992 | 33.80500 | 61 ft | 5 kts | 81° |
| 2026-05-01 14:21 | 27.18004 | 33.80548 | 61 ft | 6 kts | 75° |
| 2026-05-01 14:21 | 27.18012 | 33.80583 | 61 ft | 0 kts | 76° |